sensor_id;sensor_type;location;lat;lon;timestamp;pressure;altitude;pressure_sealevel;temperature;humidity
21863;BME280;11096;51.338;12.524;2023-03-14T00:00:57;97923.06;;;11.25;nan
21863;BME280;11096;51.338;12.524;2023-03-14T00:03:22;97917.69;;;11.18;nan
21863;BME280;11096;51.338;12.524;2023-03-14T00:05:48;97916.88;;;11.26;nan
21863;BME280;11096;51.338;12.524;2023-03-14T00:08:13;97911.34;;;11.29;nan
21863;BME280;11096;51.338;12.524;2023-03-14T00:10:39;97917.03;;;11.25;nan
21863;BME280;11096;51.338;12.524;2023-03-14T00:13:04;97912.97;;;11.22;nan
21863;BME280;11096;51.338;12.524;2023-03-14T00:15:32;97923.84;;;11.34;nan
21863;BME280;11096;51.338;12.524;2023-03-14T00:17:58;97921.72;;;11.29;nan
21863;BME280;11096;51.338;12.524;2023-03-14T00:20:23;97922.41;;;11.23;nan
21863;BME280;11096;51.338;12.524;2023-03-14T00:22:49;97917.69;;;11.27;nan
21863;BME280;11096;51.338;12.524;2023-03-14T00:25:14;97925.03;;;11.15;nan
21863;BME280;11096;51.338;12.524;2023-03-14T00:27:39;97915.72;;;11.29;nan
21863;BME280;11096;51.338;12.524;2023-03-14T00:30:06;97912.63;;;11.33;nan
21863;BME280;11096;51.338;12.524;2023-03-14T00:32:33;97913.31;;;11.19;nan
21863;BME280;11096;51.338;12.524;2023-03-14T00:34:58;97917.53;;;11.20;nan
21863;BME280;11096;51.338;12.524;2023-03-14T00:37:24;97913.97;;;11.05;nan
21863;BME280;11096;51.338;12.524;2023-03-14T00:39:51;97920.97;;;11.12;nan
21863;BME280;11096;51.338;12.524;2023-03-14T00:42:16;97933.47;;;11.09;nan
21863;BME280;11096;51.338;12.524;2023-03-14T00:44:42;97945.31;;;11.11;nan
21863;BME280;11096;51.338;12.524;2023-03-14T00:47:07;97949.03;;;11.17;nan
21863;BME280;11096;51.338;12.524;2023-03-14T00:49:33;97934.75;;;11.21;nan
21863;BME280;11096;51.338;12.524;2023-03-14T00:51:58;97933.75;;;11.22;nan
21863;BME280;11096;51.338;12.524;2023-03-14T00:54:23;97929.25;;;11.08;nan
21863;BME280;11096;51.338;12.524;2023-03-14T00:56:49;97934.09;;;11.19;nan
21863;BME280;11096;51.338;12.524;2023-03-14T00:59:15;97928.56;;;11.14;nan
21863;BME280;11096;51.338;12.524;2023-03-14T01:01:41;97924.84;;;11.08;nan
21863;BME280;11096;51.338;12.524;2023-03-14T01:04:07;97931.19;;;11.06;nan
21863;BME280;11096;51.338;12.524;2023-03-14T01:06:32;97928.91;;;11.19;nan
21863;BME280;11096;51.338;12.524;2023-03-14T01:08:59;97947.25;;;11.26;nan
21863;BME280;11096;51.338;12.524;2023-03-14T01:11:27;97963.66;;;11.26;nan
21863;BME280;11096;51.338;12.524;2023-03-14T01:13:53;97970.50;;;11.11;nan
21863;BME280;11096;51.338;12.524;2023-03-14T01:16:20;97969.22;;;11.15;nan
21863;BME280;11096;51.338;12.524;2023-03-14T01:18:46;97967.41;;;11.24;nan
21863;BME280;11096;51.338;12.524;2023-03-14T01:21:18;97971.97;;;11.30;nan
21863;BME280;11096;51.338;12.524;2023-03-14T01:23:45;97967.56;;;11.30;nan
21863;BME280;11096;51.338;12.524;2023-03-14T01:26:16;97969.03;;;11.33;nan
21863;BME280;11096;51.338;12.524;2023-03-14T01:28:44;97975.19;;;11.07;nan
21863;BME280;11096;51.338;12.524;2023-03-14T01:31:10;97982.69;;;11.18;nan
21863;BME280;11096;51.338;12.524;2023-03-14T01:33:36;97982.22;;;11.15;nan
21863;BME280;11096;51.338;12.524;2023-03-14T01:36:02;97963.66;;;11.26;nan
21863;BME280;11096;51.338;12.524;2023-03-14T01:38:33;97961.22;;;11.16;nan
21863;BME280;11096;51.338;12.524;2023-03-14T01:40:59;97970.16;;;11.22;nan
21863;BME280;11096;51.338;12.524;2023-03-14T01:43:25;97964.97;;;11.30;nan
21863;BME280;11096;51.338;12.524;2023-03-14T01:46:34;97953.94;;;11.20;nan
21863;BME280;11096;51.338;12.524;2023-03-14T01:59:34;97950.00;;;11.24;nan
21863;BME280;11096;51.338;12.524;2023-03-14T02:02:00;97949.69;;;11.19;nan
21863;BME280;11096;51.338;12.524;2023-03-14T02:04:29;97939.31;;;11.11;nan
21863;BME280;11096;51.338;12.524;2023-03-14T02:09:40;97932.16;;;11.05;nan
21863;BME280;11096;51.338;12.524;2023-03-14T02:12:08;97925.66;;;11.09;nan
21863;BME280;11096;51.338;12.524;2023-03-14T02:14:36;97926.16;;;11.04;nan
21863;BME280;11096;51.338;12.524;2023-03-14T02:17:05;97930.88;;;11.01;nan
21863;BME280;11096;51.338;12.524;2023-03-14T02:22:09;97922.75;;;11.04;nan
21863;BME280;11096;51.338;12.524;2023-03-14T02:25:00;97915.94;;;11.03;nan
21863;BME280;11096;51.338;12.524;2023-03-14T02:27:29;97904.56;;;11.04;nan
21863;BME280;11096;51.338;12.524;2023-03-14T02:30:01;97908.75;;;11.05;nan
21863;BME280;11096;51.338;12.524;2023-03-14T02:32:29;97905.19;;;10.89;nan
21863;BME280;11096;51.338;12.524;2023-03-14T02:34:58;97909.25;;;10.92;nan
21863;BME280;11096;51.338;12.524;2023-03-14T02:37:39;97892.03;;;11.15;nan
21863;BME280;11096;51.338;12.524;2023-03-14T02:40:06;97893.19;;;10.88;nan
21863;BME280;11096;51.338;12.524;2023-03-14T02:42:32;97882.13;;;10.94;nan
21863;BME280;11096;51.338;12.524;2023-03-14T02:47:51;97881.31;;;10.94;nan
21863;BME280;11096;51.338;12.524;2023-03-14T02:50:22;97873.53;;;11.10;nan
21863;BME280;11096;51.338;12.524;2023-03-14T02:52:50;97862.94;;;11.12;nan
21863;BME280;11096;51.338;12.524;2023-03-14T02:55:20;97864.22;;;11.24;nan
21863;BME280;11096;51.338;12.524;2023-03-14T02:57:46;97862.97;;;11.04;nan
21863;BME280;11096;51.338;12.524;2023-03-14T03:00:12;97862.28;;;11.18;nan
21863;BME280;11096;51.338;12.524;2023-03-14T03:02:37;97857.72;;;11.28;nan
21863;BME280;11096;51.338;12.524;2023-03-14T03:05:02;97859.03;;;11.16;nan
21863;BME280;11096;51.338;12.524;2023-03-14T03:07:28;97853.69;;;11.09;nan
21863;BME280;11096;51.338;12.524;2023-03-14T03:09:53;97864.09;;;11.01;nan
21863;BME280;11096;51.338;12.524;2023-03-14T03:12:19;97853.84;;;11.16;nan
21863;BME280;11096;51.338;12.524;2023-03-14T03:14:44;97850.94;;;11.11;nan
21863;BME280;11096;51.338;12.524;2023-03-14T03:17:09;97859.69;;;11.10;nan
21863;BME280;11096;51.338;12.524;2023-03-14T03:19:35;97873.50;;;11.18;nan
21863;BME280;11096;51.338;12.524;2023-03-14T03:22:00;97876.56;;;11.22;nan
21863;BME280;11096;51.338;12.524;2023-03-14T03:24:26;97883.72;;;11.28;nan
21863;BME280;11096;51.338;12.524;2023-03-14T03:26:52;97870.84;;;11.43;nan
21863;BME280;11096;51.338;12.524;2023-03-14T03:29:18;97853.81;;;11.32;nan
21863;BME280;11096;51.338;12.524;2023-03-14T03:31:43;97863.06;;;11.35;nan
21863;BME280;11096;51.338;12.524;2023-03-14T03:34:11;97847.13;;;11.38;nan
21863;BME280;11096;51.338;12.524;2023-03-14T03:36:36;97848.91;;;11.46;nan
21863;BME280;11096;51.338;12.524;2023-03-14T03:39:02;97833.63;;;11.43;nan
21863;BME280;11096;51.338;12.524;2023-03-14T03:41:27;97825.00;;;11.50;nan
21863;BME280;11096;51.338;12.524;2023-03-14T03:43:53;97834.25;;;11.53;nan
21863;BME280;11096;51.338;12.524;2023-03-14T03:46:19;97817.03;;;11.52;nan
21863;BME280;11096;51.338;12.524;2023-03-14T03:48:44;97821.59;;;11.42;nan
21863;BME280;11096;51.338;12.524;2023-03-14T03:51:15;97813.78;;;11.50;nan
21863;BME280;11096;51.338;12.524;2023-03-14T03:53:41;97821.44;;;11.43;nan
21863;BME280;11096;51.338;12.524;2023-03-14T03:56:08;97810.72;;;11.38;nan
21863;BME280;11096;51.338;12.524;2023-03-14T03:58:33;97805.91;;;11.18;nan
21863;BME280;11096;51.338;12.524;2023-03-14T04:00:59;97805.75;;;11.20;nan
21863;BME280;11096;51.338;12.524;2023-03-14T04:03:24;97809.19;;;11.12;nan
21863;BME280;11096;51.338;12.524;2023-03-14T04:08:30;97804.44;;;11.24;nan
21863;BME280;11096;51.338;12.524;2023-03-14T04:10:57;97814.22;;;11.14;nan
21863;BME280;11096;51.338;12.524;2023-03-14T04:13:23;97819.72;;;11.27;nan
21863;BME280;11096;51.338;12.524;2023-03-14T04:15:49;97809.28;;;11.35;nan
21863;BME280;11096;51.338;12.524;2023-03-14T04:18:14;97807.53;;;11.20;nan
21863;BME280;11096;51.338;12.524;2023-03-14T04:20:40;97812.22;;;11.32;nan
21863;BME280;11096;51.338;12.524;2023-03-14T04:23:05;97818.72;;;11.28;nan
21863;BME280;11096;51.338;12.524;2023-03-14T04:25:30;97805.88;;;11.27;nan
21863;BME280;11096;51.338;12.524;2023-03-14T04:27:56;97811.56;;;11.22;nan
21863;BME280;11096;51.338;12.524;2023-03-14T04:30:21;97803.81;;;11.14;nan
21863;BME280;11096;51.338;12.524;2023-03-14T04:32:47;97808.03;;;11.07;nan
21863;BME280;11096;51.338;12.524;2023-03-14T04:35:13;97813.41;;;11.13;nan
21863;BME280;11096;51.338;12.524;2023-03-14T04:37:39;97807.41;;;11.13;nan
21863;BME280;11096;51.338;12.524;2023-03-14T04:40:07;97810.31;;;11.18;nan
21863;BME280;11096;51.338;12.524;2023-03-14T04:42:33;97806.78;;;11.03;nan
21863;BME280;11096;51.338;12.524;2023-03-14T04:44:59;97800.59;;;11.04;nan
21863;BME280;11096;51.338;12.524;2023-03-14T04:47:25;97796.38;;;11.03;nan
21863;BME280;11096;51.338;12.524;2023-03-14T04:49:50;97790.53;;;10.92;nan
21863;BME280;11096;51.338;12.524;2023-03-14T04:52:16;97791.19;;;10.94;nan
21863;BME280;11096;51.338;12.524;2023-03-14T04:54:41;97787.78;;;10.94;nan
21863;BME280;11096;51.338;12.524;2023-03-14T04:57:07;97799.16;;;10.85;nan
21863;BME280;11096;51.338;12.524;2023-03-14T04:59:32;97794.13;;;10.83;nan
21863;BME280;11096;51.338;12.524;2023-03-14T05:01:57;97777.91;;;10.81;nan
21863;BME280;11096;51.338;12.524;2023-03-14T05:04:23;97781.28;;;10.90;nan
21863;BME280;11096;51.338;12.524;2023-03-14T05:06:48;97787.59;;;11.04;nan
21863;BME280;11096;51.338;12.524;2023-03-14T05:09:14;97771.22;;;10.87;nan
21863;BME280;11096;51.338;12.524;2023-03-14T05:11:40;97771.56;;;10.84;nan
21863;BME280;11096;51.338;12.524;2023-03-14T05:14:05;97779.66;;;10.89;nan
21863;BME280;11096;51.338;12.524;2023-03-14T05:16:31;97773.63;;;10.96;nan
21863;BME280;11096;51.338;12.524;2023-03-14T05:18:56;97776.75;;;10.84;nan
21863;BME280;11096;51.338;12.524;2023-03-14T05:21:22;97774.94;;;10.92;nan
21863;BME280;11096;51.338;12.524;2023-03-14T05:23:47;97761.28;;;10.99;nan
21863;BME280;11096;51.338;12.524;2023-03-14T05:26:12;97766.16;;;11.02;nan
21863;BME280;11096;51.338;12.524;2023-03-14T05:28:38;97754.81;;;11.03;nan
21863;BME280;11096;51.338;12.524;2023-03-14T05:31:07;97757.22;;;11.04;nan
21863;BME280;11096;51.338;12.524;2023-03-14T05:33:33;97758.34;;;11.02;nan
21863;BME280;11096;51.338;12.524;2023-03-14T05:35:59;97749.25;;;11.06;nan
21863;BME280;11096;51.338;12.524;2023-03-14T05:38:24;97744.06;;;11.06;nan
21863;BME280;11096;51.338;12.524;2023-03-14T05:40:49;97742.75;;;11.02;nan
21863;BME280;11096;51.338;12.524;2023-03-14T05:43:15;97745.16;;;11.11;nan
21863;BME280;11096;51.338;12.524;2023-03-14T05:45:41;97739.47;;;11.16;nan
21863;BME280;11096;51.338;12.524;2023-03-14T05:48:07;97744.66;;;11.16;nan
21863;BME280;11096;51.338;12.524;2023-03-14T05:50:32;97735.06;;;11.16;nan
21863;BME280;11096;51.338;12.524;2023-03-14T05:52:58;97731.97;;;11.21;nan
21863;BME280;11096;51.338;12.524;2023-03-14T05:55:23;97741.06;;;11.17;nan
21863;BME280;11096;51.338;12.524;2023-03-14T05:57:49;97735.56;;;11.20;nan
21863;BME280;11096;51.338;12.524;2023-03-14T06:00:15;97745.63;;;11.23;nan
21863;BME280;11096;51.338;12.524;2023-03-14T06:02:40;97745.47;;;11.16;nan
21863;BME280;11096;51.338;12.524;2023-03-14T06:05:06;97748.88;;;11.25;nan
21863;BME280;11096;51.338;12.524;2023-03-14T06:07:32;97746.91;;;11.27;nan
21863;BME280;11096;51.338;12.524;2023-03-14T06:09:57;97745.22;;;11.34;nan
21863;BME280;11096;51.338;12.524;2023-03-14T06:12:24;97747.22;;;11.32;nan
21863;BME280;11096;51.338;12.524;2023-03-14T06:14:49;97746.88;;;11.35;nan
21863;BME280;11096;51.338;12.524;2023-03-14T06:17:15;97754.19;;;11.32;nan
21863;BME280;11096;51.338;12.524;2023-03-14T06:19:41;97747.53;;;11.37;nan
21863;BME280;11096;51.338;12.524;2023-03-14T06:22:06;97745.88;;;11.45;nan
21863;BME280;11096;51.338;12.524;2023-03-14T06:24:31;97749.78;;;11.41;nan
21863;BME280;11096;51.338;12.524;2023-03-14T06:26:57;97753.66;;;11.45;nan
21863;BME280;11096;51.338;12.524;2023-03-14T06:29:22;97749.16;;;11.61;nan
21863;BME280;11096;51.338;12.524;2023-03-14T06:31:48;97753.25;;;11.64;nan
21863;BME280;11096;51.338;12.524;2023-03-14T06:34:13;97759.13;;;11.58;nan
21863;BME280;11096;51.338;12.524;2023-03-14T06:36:39;97748.72;;;11.58;nan
21863;BME280;11096;51.338;12.524;2023-03-14T06:39:04;97746.53;;;11.70;nan
21863;BME280;11096;51.338;12.524;2023-03-14T06:41:29;97766.75;;;11.59;nan
21863;BME280;11096;51.338;12.524;2023-03-14T06:43:55;97752.31;;;11.80;nan
21863;BME280;11096;51.338;12.524;2023-03-14T06:46:20;97745.28;;;11.89;nan
21863;BME280;11096;51.338;12.524;2023-03-14T06:48:46;97755.09;;;11.87;nan
21863;BME280;11096;51.338;12.524;2023-03-14T06:51:11;97757.69;;;11.87;nan
21863;BME280;11096;51.338;12.524;2023-03-14T06:53:37;97768.41;;;11.83;nan
21863;BME280;11096;51.338;12.524;2023-03-14T06:56:02;97779.09;;;11.97;nan
21863;BME280;11096;51.338;12.524;2023-03-14T06:58:27;97770.06;;;12.08;nan
21863;BME280;11096;51.338;12.524;2023-03-14T07:00:53;97772.72;;;11.99;nan
21863;BME280;11096;51.338;12.524;2023-03-14T07:03:20;97782.66;;;11.96;nan
21863;BME280;11096;51.338;12.524;2023-03-14T07:05:45;97775.97;;;12.01;nan
21863;BME280;11096;51.338;12.524;2023-03-14T07:08:11;97784.94;;;11.99;nan
21863;BME280;11096;51.338;12.524;2023-03-14T07:10:36;97777.81;;;11.93;nan
21863;BME280;11096;51.338;12.524;2023-03-14T07:13:02;97784.00;;;11.83;nan
21863;BME280;11096;51.338;12.524;2023-03-14T07:15:27;97776.44;;;12.05;nan
21863;BME280;11096;51.338;12.524;2023-03-14T07:17:53;97769.63;;;12.04;nan
21863;BME280;11096;51.338;12.524;2023-03-14T07:20:18;97769.72;;;12.34;nan
21863;BME280;11096;51.338;12.524;2023-03-14T07:22:47;97761.16;;;12.48;nan
21863;BME280;11096;51.338;12.524;2023-03-14T07:25:13;97747.75;;;12.51;nan
21863;BME280;11096;51.338;12.524;2023-03-14T07:27:38;97747.56;;;12.53;nan
21863;BME280;11096;51.338;12.524;2023-03-14T07:30:04;97750.13;;;12.61;nan
21863;BME280;11096;51.338;12.524;2023-03-14T07:32:30;97756.94;;;12.62;nan
21863;BME280;11096;51.338;12.524;2023-03-14T07:34:55;97761.91;;;12.72;nan
21863;BME280;11096;51.338;12.524;2023-03-14T07:37:21;97758.22;;;12.81;nan
21863;BME280;11096;51.338;12.524;2023-03-14T07:39:46;97765.03;;;12.82;nan
21863;BME280;11096;51.338;12.524;2023-03-14T07:42:12;97761.75;;;12.88;nan
21863;BME280;11096;51.338;12.524;2023-03-14T07:44:37;97770.00;;;13.06;nan
21863;BME280;11096;51.338;12.524;2023-03-14T07:47:03;97779.63;;;13.21;nan
21863;BME280;11096;51.338;12.524;2023-03-14T07:49:28;97785.22;;;13.18;nan
21863;BME280;11096;51.338;12.524;2023-03-14T07:51:53;97784.78;;;13.29;nan
21863;BME280;11096;51.338;12.524;2023-03-14T07:54:19;97782.09;;;13.37;nan
21863;BME280;11096;51.338;12.524;2023-03-14T07:56:44;97779.84;;;13.49;nan
21863;BME280;11096;51.338;12.524;2023-03-14T07:59:10;97779.28;;;13.68;nan
21863;BME280;11096;51.338;12.524;2023-03-14T08:01:36;97792.00;;;13.78;nan
21863;BME280;11096;51.338;12.524;2023-03-14T08:04:01;97789.09;;;13.88;nan
21863;BME280;11096;51.338;12.524;2023-03-14T08:06:27;97784.25;;;13.85;nan
21863;BME280;11096;51.338;12.524;2023-03-14T08:08:52;97777.13;;;13.93;nan
21863;BME280;11096;51.338;12.524;2023-03-14T08:11:18;97775.56;;;13.99;nan
21863;BME280;11096;51.338;12.524;2023-03-14T08:13:43;97775.56;;;13.99;nan
21863;BME280;11096;51.338;12.524;2023-03-14T08:16:17;97759.47;;;13.95;nan
21863;BME280;11096;51.338;12.524;2023-03-14T08:18:44;97757.22;;;14.14;nan
21863;BME280;11096;51.338;12.524;2023-03-14T08:21:10;97763.72;;;14.18;nan
21863;BME280;11096;51.338;12.524;2023-03-14T08:23:36;97761.28;;;14.16;nan
21863;BME280;11096;51.338;12.524;2023-03-14T08:26:01;97759.13;;;14.48;nan
21863;BME280;11096;51.338;12.524;2023-03-14T08:28:27;97755.75;;;14.76;nan
21863;BME280;11096;51.338;12.524;2023-03-14T08:30:56;97763.56;;;14.26;nan
21863;BME280;11096;51.338;12.524;2023-03-14T08:33:23;97757.84;;;14.37;nan
21863;BME280;11096;51.338;12.524;2023-03-14T08:35:52;97748.88;;;14.47;nan
21863;BME280;11096;51.338;12.524;2023-03-14T08:38:17;97747.78;;;14.13;nan
21863;BME280;11096;51.338;12.524;2023-03-14T08:40:43;97754.69;;;14.21;nan
21863;BME280;11096;51.338;12.524;2023-03-14T08:43:08;97747.41;;;14.37;nan
21863;BME280;11096;51.338;12.524;2023-03-14T08:45:34;97740.78;;;14.42;nan
21863;BME280;11096;51.338;12.524;2023-03-14T08:47:59;97745.91;;;14.50;nan
21863;BME280;11096;51.338;12.524;2023-03-14T08:50:25;97733.28;;;14.53;nan
21863;BME280;11096;51.338;12.524;2023-03-14T08:52:50;97745.94;;;14.56;nan
21863;BME280;11096;51.338;12.524;2023-03-14T08:55:16;97745.59;;;14.59;nan
21863;BME280;11096;51.338;12.524;2023-03-14T08:57:41;97740.78;;;14.42;nan
21863;BME280;11096;51.338;12.524;2023-03-14T09:00:07;97732.53;;;14.59;nan
21863;BME280;11096;51.338;12.524;2023-03-14T09:02:39;97737.13;;;14.57;nan
21863;BME280;11096;51.338;12.524;2023-03-14T09:05:05;97732.00;;;15.06;nan
21863;BME280;11096;51.338;12.524;2023-03-14T09:07:30;97725.59;;;15.63;nan
21863;BME280;11096;51.338;12.524;2023-03-14T09:09:56;97737.66;;;15.64;nan
21863;BME280;11096;51.338;12.524;2023-03-14T09:12:21;97738.56;;;15.91;nan
21863;BME280;11096;51.338;12.524;2023-03-14T09:14:46;97736.56;;;16.06;nan
21863;BME280;11096;51.338;12.524;2023-03-14T09:17:12;97736.59;;;16.26;nan
21863;BME280;11096;51.338;12.524;2023-03-14T09:19:37;97751.69;;;15.43;nan
21863;BME280;11096;51.338;12.524;2023-03-14T09:22:03;97748.31;;;14.30;nan
21863;BME280;11096;51.338;12.524;2023-03-14T09:24:28;97743.44;;;14.20;nan
21863;BME280;11096;51.338;12.524;2023-03-14T09:26:55;97752.16;;;14.06;nan
21863;BME280;11096;51.338;12.524;2023-03-14T09:29:22;97754.28;;;13.81;nan
21863;BME280;11096;51.338;12.524;2023-03-14T09:31:47;97748.72;;;13.84;nan
21863;BME280;11096;51.338;12.524;2023-03-14T09:34:12;97749.88;;;14.03;nan
21863;BME280;11096;51.338;12.524;2023-03-14T09:36:38;97753.88;;;14.20;nan
21863;BME280;11096;51.338;12.524;2023-03-14T09:39:05;97751.94;;;15.13;nan
21863;BME280;11096;51.338;12.524;2023-03-14T09:41:36;97764.19;;;14.50;nan
21863;BME280;11096;51.338;12.524;2023-03-14T09:44:14;97753.50;;;15.42;nan
21863;BME280;11096;51.338;12.524;2023-03-14T09:46:41;97758.34;;;17.07;nan
21863;BME280;11096;51.338;12.524;2023-03-14T09:49:20;97759.31;;;15.31;nan
21863;BME280;11096;51.338;12.524;2023-03-14T09:51:50;97768.34;;;14.66;nan
21863;BME280;11096;51.338;12.524;2023-03-14T09:54:42;97773.47;;;14.09;nan
21863;BME280;11096;51.338;12.524;2023-03-14T09:57:14;97779.69;;;14.08;nan
21863;BME280;11096;51.338;12.524;2023-03-14T09:59:44;97784.13;;;13.71;nan
21863;BME280;11096;51.338;12.524;2023-03-14T10:02:19;97782.25;;;13.50;nan
21863;BME280;11096;51.338;12.524;2023-03-14T10:04:46;97777.03;;;13.50;nan
21863;BME280;11096;51.338;12.524;2023-03-14T10:07:17;97779.75;;;13.42;nan
21863;BME280;11096;51.338;12.524;2023-03-14T10:09:48;97772.97;;;13.18;nan
21863;BME280;11096;51.338;12.524;2023-03-14T10:12:15;97779.00;;;13.19;nan
21863;BME280;11096;51.338;12.524;2023-03-14T10:14:50;97773.78;;;12.89;nan
21863;BME280;11096;51.338;12.524;2023-03-14T10:17:18;97777.75;;;12.85;nan
21863;BME280;11096;51.338;12.524;2023-03-14T10:19:58;97775.47;;;12.97;nan
21863;BME280;11096;51.338;12.524;2023-03-14T10:22:30;97775.31;;;13.13;nan
21863;BME280;11096;51.338;12.524;2023-03-14T10:25:00;97778.66;;;12.92;nan
21863;BME280;11096;51.338;12.524;2023-03-14T10:27:34;97774.50;;;12.83;nan
21863;BME280;11096;51.338;12.524;2023-03-14T10:30:05;97773.03;;;12.65;nan
21863;BME280;11096;51.338;12.524;2023-03-14T10:32:45;97771.59;;;12.63;nan
21863;BME280;11096;51.338;12.524;2023-03-14T10:38:00;97784.13;;;12.44;nan
21863;BME280;11096;51.338;12.524;2023-03-14T10:40:39;97795.06;;;12.40;nan
21863;BME280;11096;51.338;12.524;2023-03-14T10:43:11;97798.03;;;12.37;nan
21863;BME280;11096;51.338;12.524;2023-03-14T10:45:40;97791.09;;;13.49;nan
21863;BME280;11096;51.338;12.524;2023-03-14T10:48:18;97799.75;;;13.86;nan
21863;BME280;11096;51.338;12.524;2023-03-14T10:50:57;97790.81;;;13.95;nan
21863;BME280;11096;51.338;12.524;2023-03-14T10:53:24;97796.28;;;12.67;nan
21863;BME280;11096;51.338;12.524;2023-03-14T10:55:49;97795.63;;;12.50;nan
21863;BME280;11096;51.338;12.524;2023-03-14T10:58:24;97792.97;;;12.35;nan
21863;BME280;11096;51.338;12.524;2023-03-14T11:04:04;97785.91;;;12.44;nan
21863;BME280;11096;51.338;12.524;2023-03-14T11:15:01;97778.38;;;12.49;nan
21863;BME280;11096;51.338;12.524;2023-03-14T11:17:41;97788.41;;;12.37;nan
21863;BME280;11096;51.338;12.524;2023-03-14T11:23:20;97801.88;;;12.18;nan
21863;BME280;11096;51.338;12.524;2023-03-14T11:28:23;97799.19;;;12.34;nan
21863;BME280;11096;51.338;12.524;2023-03-14T11:30:55;97794.44;;;12.76;nan
21863;BME280;11096;51.338;12.524;2023-03-14T11:33:29;97790.69;;;12.93;nan
21863;BME280;11096;51.338;12.524;2023-03-14T11:36:07;97800.28;;;13.82;nan
21863;BME280;11096;51.338;12.524;2023-03-14T11:38:48;97791.22;;;13.63;nan
21863;BME280;11096;51.338;12.524;2023-03-14T11:41:33;97795.72;;;13.69;nan
21863;BME280;11096;51.338;12.524;2023-03-14T11:44:04;97789.28;;;13.35;nan
21863;BME280;11096;51.338;12.524;2023-03-14T11:46:42;97798.97;;;13.11;nan
21863;BME280;11096;51.338;12.524;2023-03-14T11:51:47;97801.66;;;12.88;nan
21863;BME280;11096;51.338;12.524;2023-03-14T11:57:33;97795.53;;;12.81;nan
21863;BME280;11096;51.338;12.524;2023-03-14T12:00:13;97787.56;;;14.15;nan
21863;BME280;11096;51.338;12.524;2023-03-14T12:05:43;97774.34;;;15.22;nan
21863;BME280;11096;51.338;12.524;2023-03-14T12:10:59;97764.81;;;16.51;nan
21863;BME280;11096;51.338;12.524;2023-03-14T12:13:35;97766.19;;;16.00;62.27
21863;BME280;11096;51.338;12.524;2023-03-14T12:16:05;97763.56;;;16.07;62.12
21863;BME280;11096;51.338;12.524;2023-03-14T12:18:38;97761.13;;;15.92;62.28
21863;BME280;11096;51.338;12.524;2023-03-14T12:21:06;97766.44;;;15.16;63.76
21863;BME280;11096;51.338;12.524;2023-03-14T12:28:36;97768.06;;;14.32;65.22
21863;BME280;11096;51.338;12.524;2023-03-14T12:49:49;97751.72;;;18.83;63.24
21863;BME280;11096;51.338;12.524;2023-03-14T12:52:22;97733.88;;;23.40;50.79
21863;BME280;11096;51.338;12.524;2023-03-14T12:55:21;97717.50;;;20.64;49.92
21863;BME280;11096;51.338;12.524;2023-03-14T13:00:41;97717.72;;;19.00;52.59
21863;BME280;11096;51.338;12.524;2023-03-14T13:03:21;97718.59;;;17.93;53.75
21863;BME280;11096;51.338;12.524;2023-03-14T13:06:00;97711.97;;;17.46;54.78
21863;BME280;11096;51.338;12.524;2023-03-14T13:10:58;97702.13;;;16.23;59.56
21863;BME280;11096;51.338;12.524;2023-03-14T13:13:26;97696.03;;;15.14;61.07
21863;BME280;11096;51.338;12.524;2023-03-14T13:15:56;97688.44;;;15.33;61.29
21863;BME280;11096;51.338;12.524;2023-03-14T13:18:35;97687.19;;;14.80;62.95
21863;BME280;11096;51.338;12.524;2023-03-14T13:21:22;97676.53;;;16.45;60.14
21863;BME280;11096;51.338;12.524;2023-03-14T13:24:01;97670.00;;;22.36;50.04
21863;BME280;11096;51.338;12.524;2023-03-14T13:26:43;97682.38;;;19.26;49.68
21863;BME280;11096;51.338;12.524;2023-03-14T13:29:16;97693.63;;;16.81;56.18
21863;BME280;11096;51.338;12.524;2023-03-14T13:31:47;97708.78;;;16.45;58.23
21863;BME280;11096;51.338;12.524;2023-03-14T13:34:13;97703.53;;;16.05;59.49
21863;BME280;11096;51.338;12.524;2023-03-14T13:36:38;97708.44;;;14.99;61.29
21863;BME280;11096;51.338;12.524;2023-03-14T13:39:09;97705.97;;;16.47;61.21
21863;BME280;11096;51.338;12.524;2023-03-14T13:41:38;97691.69;;;18.48;55.25
21863;BME280;11096;51.338;12.524;2023-03-14T13:44:07;97696.06;;;16.69;56.84
21863;BME280;11096;51.338;12.524;2023-03-14T13:46:34;97697.03;;;15.75;59.74
21863;BME280;11096;51.338;12.524;2023-03-14T13:49:05;97688.88;;;17.16;56.58
21863;BME280;11096;51.338;12.524;2023-03-14T13:51:32;97688.75;;;19.67;51.98
21863;BME280;11096;51.338;12.524;2023-03-14T13:53:58;97679.66;;;20.58;48.08
21863;BME280;11096;51.338;12.524;2023-03-14T13:56:30;97673.16;;;22.33;46.47
21863;BME280;11096;51.338;12.524;2023-03-14T13:58:56;97666.88;;;23.71;42.57
21863;BME280;11096;51.338;12.524;2023-03-14T14:01:29;97663.81;;;22.14;43.53
21863;BME280;11096;51.338;12.524;2023-03-14T14:04:14;97674.84;;;17.80;50.77
21863;BME280;11096;51.338;12.524;2023-03-14T14:06:49;97675.06;;;16.69;54.52
21863;BME280;11096;51.338;12.524;2023-03-14T14:09:19;97669.41;;;19.13;50.46
21863;BME280;11096;51.338;12.524;2023-03-14T14:11:54;97666.78;;;20.27;49.09
21863;BME280;11096;51.338;12.524;2023-03-14T14:14:29;97673.50;;;17.65;51.50
21863;BME280;11096;51.338;12.524;2023-03-14T14:16:57;97682.94;;;16.69;53.12
21863;BME280;11096;51.338;12.524;2023-03-14T14:19:27;97671.03;;;18.01;52.59
21863;BME280;11096;51.338;12.524;2023-03-14T14:21:53;97663.38;;;16.78;52.24
21863;BME280;11096;51.338;12.524;2023-03-14T14:24:21;97669.13;;;15.34;55.81
21863;BME280;11096;51.338;12.524;2023-03-14T14:26:51;97683.94;;;14.72;57.73
21863;BME280;11096;51.338;12.524;2023-03-14T14:29:27;97686.47;;;14.58;59.25
21863;BME280;11096;51.338;12.524;2023-03-14T14:34:29;97701.88;;;14.25;60.85
21863;BME280;11096;51.338;12.524;2023-03-14T14:37:03;97704.13;;;13.85;61.83